Main page
METAR-TAF:

METAR-TAF

Airports :

Islamabad, Pakistan

Benazir Bhutto International Airport

latitude: 33-37N, longitude: 073-06E, elevation: 507 m

Current weather observation

The report was made 1 hour and 0 minutes ago, at 14:00 UTC
Wind 8 kt from the West
Temperature 28°C
Humidity 42%
Pressure 1011 hPa
Visibility 10 km or more
Scattered clouds at a height of 23000 ft

METAR: OPRN 291400Z 27008KT CAVOK SCT230 28/14 Q1011.3/29.86

Time: 20:00 (15:00 UTC)

Forecast

The report was made 11 hours and 30 minutes ago, at 03:30 UTC
Forecast valid from 29 at 06 UTC to 30 at 12 UTC
Wind 10 kt from the North/Northwest with gusts up to 25 kt
Visibility: 6000 m
Becoming
from 29 at 14 UTC to 29 at 16 UTC
Wind 10 kt from the West
Visibility: 4000 m
haze
Becoming
from 30 at 06 UTC to 30 at 07 UTC
Wind 10 kt from the North/Northwest with gusts up to 25 kt
Visibility: 6000 m

TAF: OPRN 290330Z 2906/3012 34010G25KT 6000 NSC BECMG 2914/2916 27010KT 4000 HZ BECMG 3006/3007 34010G25KT 6000

Weather observations and forecasts of more than 4000 airports (METAR and TAF reports).

The available stations are represented by yellow and red dots on the map.

Hover mouse over dot to see the name of the station.

Then click to see weather observations and forecasts.

To change the map : click on the green buttons with a black cross to zoom in, on the green button with a dash to zoom out, or on the green arrows for adjacent maps.


METAR-TAF: